메인 페이지
METAR-TAF:

METAR-TAF

공항 :

La Crosse, 위스콘신, 미국

위도: 43-52-46N, 경도: 091-15-24W, 고도: 199m

현재 날씨관측

예보는 15분 전, 14:53시(UTC)에 발표되었습니다.
남동4kt
온도 23°C
습도 65%
기압 1018 hPa
시정: 16.1km
맑음

METAR: KLSE 121453Z 14004KT 10SM CLR 23/16 A3006 RMK AO2 SLP172 T02280156 56008

시각: 10:08 (15:08 UTC)

예보

예보는 3 시간 45분 전, 11:23시(UTC)에 발표되었습니다.
예보 대상 시간: 12일 12시부터 13일 12시까지 (UTC)
남남동6kt
시정: 10km
고도 5000ft 상공 구름 보통
고도 15000ft 상공 구름 보통
12일 1800시부터 (UTC)
9kt
시정: 10km
고도 10000ft 상공 구름 많음

TAF: KLSE 121123Z 1212/1312 15006KT P6SM SCT050 SCT150 FM121800 17009KT P6SM BKN100

4,000개 이상의 공항 관측 자료 및 예보 (METAR 및 TAF 보고).

지도상에서 검색 가능한 기상관측소가 노란 점과 빨간 점으로 표시되어 있습니다.

기상관측소 명을 보려면 표시 위로 마우스를 이동하세요.

날씨 관측과 예보를 보려면 클릭하세요.

지도 변경 : 확대하려면 엑스 표시가 있는 녹색 버튼, 축소하려면 빼기 표시가 있는 녹색 버튼, 다음 페이지의 지도를 보려면 녹색 화살표를 클릭하세요.


METAR-TAF: